createdAt,value
2023-04-08T00:01:07.761Z,4.60
2023-04-08T00:04:11.011Z,4.68
2023-04-08T00:07:14.041Z,4.74
2023-04-08T00:10:17.124Z,4.73
2023-04-08T00:13:20.109Z,4.77
2023-04-08T00:16:22.954Z,4.80
2023-04-08T00:19:25.791Z,4.85
2023-04-08T00:22:28.585Z,4.80
2023-04-08T00:25:31.624Z,4.69
2023-04-08T00:28:34.396Z,4.65
2023-04-08T00:31:37.276Z,4.58
2023-04-08T00:34:40.084Z,4.62
2023-04-08T00:37:42.892Z,4.70
2023-04-08T00:40:47.666Z,4.69
2023-04-08T00:43:50.861Z,4.71
2023-04-08T00:46:54.194Z,4.65
2023-04-08T00:49:57.089Z,4.65
2023-04-08T00:52:59.976Z,4.65
2023-04-08T00:56:02.942Z,4.65
2023-04-08T00:59:06.168Z,4.67
2023-04-08T01:02:34.255Z,4.68
2023-04-08T01:05:57.038Z,4.68
2023-04-08T01:09:01.256Z,4.67
2023-04-08T01:12:08.354Z,4.68
2023-04-08T01:15:12.746Z,4.68
2023-04-08T01:18:17.445Z,4.56
2023-04-08T01:21:24.001Z,4.49
2023-04-08T01:24:31.192Z,4.37
2023-04-08T01:27:35.980Z,4.30
2023-04-08T01:30:40.805Z,4.25
2023-04-08T01:33:45.242Z,4.21
2023-04-08T01:36:49.836Z,4.27
2023-04-08T01:39:54.957Z,4.33
2023-04-08T01:42:59.443Z,4.33
2023-04-08T01:46:02.742Z,4.32
2023-04-08T01:49:07.441Z,4.18
2023-04-08T01:52:12.959Z,4.12
2023-04-08T01:55:17.206Z,4.20
2023-04-08T01:58:22.294Z,4.19
2023-04-08T02:01:27.579Z,4.19
2023-04-08T02:04:30.706Z,4.20
2023-04-08T02:07:33.590Z,4.16
2023-04-08T02:10:37.881Z,4.18
2023-04-08T02:13:41.365Z,4.14
2023-04-08T02:16:53.484Z,4.15
2023-04-08T02:20:16.843Z,4.10
2023-04-08T02:23:22.209Z,4.09
2023-04-08T02:26:25.978Z,4.00
2023-04-08T02:29:36.260Z,4.00
2023-04-08T02:32:39.812Z,3.97
2023-04-08T02:35:43.726Z,3.95
2023-04-08T02:38:50.431Z,3.93
2023-04-08T02:41:53.421Z,3.91
2023-04-08T02:44:58.243Z,3.89
2023-04-08T02:48:01.741Z,3.96
2023-04-08T02:51:04.650Z,4.03
2023-04-08T02:54:07.506Z,4.02
2023-04-08T02:57:10.333Z,3.92
2023-04-08T03:00:16.234Z,3.88
2023-04-08T03:03:19.177Z,3.83
2023-04-08T03:06:27.116Z,3.83
2023-04-08T03:09:29.905Z,3.81
2023-04-08T03:12:33.275Z,3.82
2023-04-08T03:15:36.324Z,3.80
2023-04-08T03:18:39.334Z,3.82
2023-04-08T03:21:42.261Z,3.81
2023-04-08T03:24:45.488Z,3.82
2023-04-08T03:27:48.332Z,3.89
2023-04-08T03:30:51.319Z,3.96
2023-04-08T03:33:54.225Z,4.02
2023-04-08T03:36:56.982Z,4.04
2023-04-08T03:40:00.230Z,3.93
2023-04-08T03:43:03.057Z,3.93
2023-04-08T03:46:06.029Z,3.88
2023-04-08T03:49:09.022Z,3.96
2023-04-08T03:52:11.919Z,3.92
2023-04-08T03:55:14.686Z,3.90
2023-04-08T03:58:17.436Z,3.86
2023-04-08T04:01:20.352Z,3.75
2023-04-08T04:04:24.395Z,3.75
2023-04-08T04:07:27.235Z,3.76
2023-04-08T04:10:30.081Z,3.72
2023-04-08T04:13:32.940Z,3.70
2023-04-08T04:16:35.725Z,3.75
2023-04-08T04:19:38.764Z,3.77
2023-04-08T04:22:41.878Z,3.82
2023-04-08T04:25:44.631Z,3.84
2023-04-08T04:28:47.662Z,3.93
2023-04-08T04:31:50.894Z,3.96
2023-04-08T04:34:53.673Z,4.09
2023-04-08T04:37:56.989Z,4.03
2023-04-08T04:41:00.036Z,4.07
2023-04-08T04:44:02.828Z,4.13
2023-04-08T04:47:05.853Z,4.18
2023-04-08T04:50:09.395Z,4.10
2023-04-08T04:53:12.371Z,4.08
2023-04-08T04:56:15.073Z,3.95
2023-04-08T04:59:17.856Z,3.99
2023-04-08T05:02:20.788Z,3.94
2023-04-08T05:05:23.686Z,3.92
2023-04-08T05:08:27.935Z,3.84
2023-04-08T05:11:31.150Z,3.89
2023-04-08T05:14:33.940Z,3.87
2023-04-08T05:17:36.819Z,3.90
2023-04-08T05:20:40.322Z,3.93
2023-04-08T05:23:43.285Z,3.98
2023-04-08T05:26:46.625Z,4.02
2023-04-08T05:29:49.533Z,4.03
2023-04-08T05:32:52.370Z,4.21
2023-04-08T05:35:55.271Z,4.19
2023-04-08T05:38:58.266Z,4.22
2023-04-08T05:42:01.151Z,4.19
2023-04-08T05:45:04.407Z,4.35
2023-04-08T05:48:07.209Z,4.14
2023-04-08T05:51:17.989Z,4.19
2023-04-08T05:54:20.928Z,4.11
2023-04-08T05:57:23.724Z,4.30
2023-04-08T06:00:27.241Z,4.27
2023-04-08T06:03:31.171Z,4.46
2023-04-08T06:06:34.112Z,4.57
2023-04-08T06:09:37.897Z,4.71
2023-04-08T06:12:41.270Z,4.94
2023-04-08T06:15:44.270Z,4.80
2023-04-08T06:18:47.472Z,4.57
2023-04-08T06:21:51.748Z,4.35
2023-04-08T06:24:54.506Z,4.48
2023-04-08T06:27:57.245Z,4.45
2023-04-08T06:31:00.597Z,4.42
2023-04-08T06:34:03.665Z,4.67
2023-04-08T06:37:06.587Z,4.95
2023-04-08T06:40:10.005Z,4.95
2023-04-08T06:43:14.152Z,5.12
2023-04-08T06:46:17.153Z,5.20
2023-04-08T06:49:20.497Z,5.21
2023-04-08T06:52:23.392Z,5.52
2023-04-08T06:55:26.453Z,5.76
2023-04-08T06:58:30.126Z,6.15
2023-04-08T07:01:33.186Z,5.90
2023-04-08T07:04:36.273Z,6.18
2023-04-08T07:07:39.154Z,6.40
2023-04-08T07:10:43.559Z,6.65
2023-04-08T07:13:46.451Z,6.39
2023-04-08T07:16:49.441Z,6.20
2023-04-08T07:19:52.598Z,6.16
2023-04-08T07:22:55.358Z,6.07
2023-04-08T07:26:03.477Z,6.54
2023-04-08T07:29:07.020Z,6.61
2023-04-08T07:32:09.791Z,7.11
2023-04-08T07:35:12.813Z,7.42
2023-04-08T07:38:16.701Z,7.40
2023-04-08T07:41:20.290Z,6.88
2023-04-08T07:44:23.309Z,7.11
2023-04-08T07:47:26.095Z,7.32
2023-04-08T07:50:29.389Z,7.17
2023-04-08T07:53:33.749Z,7.55
2023-04-08T07:56:38.227Z,7.81
2023-04-08T07:59:41.362Z,7.45
2023-04-08T08:02:44.688Z,7.52
2023-04-08T08:05:47.700Z,7.30
2023-04-08T08:08:50.563Z,7.39
2023-04-08T08:11:53.321Z,7.36
2023-04-08T08:14:59.219Z,7.12
2023-04-08T08:18:02.147Z,7.19
2023-04-08T08:21:05.449Z,7.21
2023-04-08T08:24:08.391Z,6.99
2023-04-08T08:27:11.784Z,7.00
2023-04-08T08:30:14.803Z,7.14
2023-04-08T08:33:18.693Z,7.07
2023-04-08T08:36:22.014Z,6.75
2023-04-08T08:39:24.835Z,7.04
2023-04-08T08:42:27.870Z,7.10
2023-04-08T08:45:30.637Z,6.69
2023-04-08T08:48:34.214Z,7.28
2023-04-08T08:51:39.717Z,7.60
2023-04-08T08:54:42.661Z,7.15
2023-04-08T08:57:45.634Z,7.30
2023-04-08T09:00:49.307Z,7.43
2023-04-08T09:04:07.449Z,8.01
2023-04-08T09:07:14.040Z,8.19
2023-04-08T09:10:29.032Z,8.35
2023-04-08T09:13:37.293Z,8.62
2023-04-08T09:16:43.302Z,8.10
2023-04-08T09:20:15.624Z,8.63
2023-04-08T09:23:20.981Z,9.38
2023-04-08T09:26:24.912Z,10.08
2023-04-08T09:29:30.505Z,10.84
2023-04-08T09:32:52.630Z,11.08
2023-04-08T09:35:55.535Z,12.23
2023-04-08T09:38:59.131Z,12.60
2023-04-08T09:42:08.475Z,13.18
2023-04-08T09:45:12.617Z,13.16
2023-04-08T09:48:24.325Z,12.51
2023-04-08T09:51:33.383Z,12.45
2023-04-08T09:54:55.401Z,12.09
2023-04-08T09:58:08.222Z,12.00
2023-04-08T10:01:15.017Z,12.38
2023-04-08T10:04:21.318Z,12.16
2023-04-08T10:07:24.590Z,12.58
2023-04-08T10:10:27.759Z,12.83
2023-04-08T10:13:31.948Z,10.70
2023-04-08T10:16:34.728Z,11.59
2023-04-08T10:19:42.283Z,11.57
2023-04-08T10:22:49.658Z,11.60
2023-04-08T10:25:52.439Z,12.39
2023-04-08T10:28:55.417Z,13.59
2023-04-08T10:31:58.556Z,13.31
2023-04-08T10:35:01.830Z,13.26
2023-04-08T10:38:04.670Z,12.43
2023-04-08T10:41:07.494Z,11.00
2023-04-08T10:44:23.682Z,11.87
2023-04-08T10:47:27.671Z,12.16
2023-04-08T10:50:33.860Z,12.06
2023-04-08T10:53:39.281Z,11.65
2023-04-08T10:56:50.148Z,12.04
2023-04-08T10:59:53.168Z,11.97
2023-04-08T11:02:56.015Z,11.58
2023-04-08T11:05:59.979Z,11.47
2023-04-08T11:09:04.349Z,11.05
2023-04-08T11:12:08.199Z,10.49
2023-04-08T11:15:11.864Z,11.03
2023-04-08T11:18:16.713Z,11.25
2023-04-08T11:21:19.767Z,11.56
2023-04-08T11:24:22.796Z,11.20
2023-04-08T11:27:26.430Z,11.18
2023-04-08T11:30:33.386Z,10.92
2023-04-08T11:33:36.512Z,10.89
2023-04-08T11:36:41.856Z,10.97
2023-04-08T11:39:46.559Z,10.95
2023-04-08T11:42:50.343Z,10.65
2023-04-08T11:45:53.153Z,10.89
2023-04-08T11:49:07.972Z,10.45
2023-04-08T11:52:11.227Z,10.19
2023-04-08T11:55:24.184Z,10.27
2023-04-08T11:58:27.394Z,10.13
2023-04-08T12:01:30.226Z,10.40
2023-04-08T12:04:34.319Z,9.83
2023-04-08T12:07:37.681Z,10.07
2023-04-08T12:10:40.821Z,11.11
2023-04-08T12:13:43.672Z,11.53
2023-04-08T12:16:46.871Z,11.92
2023-04-08T12:19:49.621Z,12.12
2023-04-08T12:22:52.551Z,12.36
2023-04-08T12:25:55.520Z,12.80
2023-04-08T12:28:58.282Z,13.15
2023-04-08T12:32:02.611Z,13.28
2023-04-08T12:35:06.393Z,12.78
2023-04-08T12:38:09.580Z,12.93
2023-04-08T12:41:12.650Z,12.95
2023-04-08T12:44:15.621Z,11.65
2023-04-08T12:47:18.561Z,12.10
2023-04-08T12:50:22.034Z,12.33
2023-04-08T12:53:24.991Z,12.14
2023-04-08T12:56:27.946Z,12.21
2023-04-08T12:59:32.276Z,12.61
2023-04-08T13:02:35.452Z,11.56
2023-04-08T13:05:43.435Z,11.47
2023-04-08T13:08:47.614Z,11.75
2023-04-08T13:11:50.425Z,11.27
2023-04-08T13:14:53.434Z,11.78
2023-04-08T13:17:56.307Z,11.51
2023-04-08T13:21:00.039Z,11.57
2023-04-08T13:24:02.789Z,10.96
2023-04-08T13:27:05.659Z,11.27
2023-04-08T13:30:10.145Z,10.38
2023-04-08T13:33:16.413Z,10.66
2023-04-08T13:36:19.376Z,10.84
2023-04-08T13:39:22.283Z,10.88
2023-04-08T13:42:25.747Z,10.71
2023-04-08T13:45:28.585Z,10.97
2023-04-08T13:48:31.755Z,11.27
2023-04-08T13:51:34.513Z,11.43
2023-04-08T13:54:37.560Z,11.41
2023-04-08T13:57:40.402Z,11.52
2023-04-08T14:00:45.174Z,10.61
2023-04-08T14:03:50.024Z,10.28
2023-04-08T14:06:53.408Z,10.38
2023-04-08T14:09:56.364Z,10.89
2023-04-08T14:12:59.179Z,10.79
2023-04-08T14:16:03.315Z,10.77
2023-04-08T14:19:06.566Z,10.78
2023-04-08T14:22:09.496Z,10.85
2023-04-08T14:25:12.236Z,11.04
2023-04-08T14:28:15.034Z,10.90
2023-04-08T14:31:18.089Z,10.43
2023-04-08T14:34:20.951Z,10.60
2023-04-08T14:37:24.139Z,10.00
2023-04-08T14:40:27.126Z,10.29
2023-04-08T14:43:29.868Z,9.62
2023-04-08T14:46:32.774Z,10.19
2023-04-08T14:49:36.067Z,9.85
2023-04-08T14:52:38.826Z,9.05
2023-04-08T14:55:41.768Z,9.74
2023-04-08T14:58:44.537Z,9.33
2023-04-08T15:01:47.713Z,9.23
2023-04-08T15:04:51.058Z,9.61
2023-04-08T15:07:54.007Z,9.16
2023-04-08T15:10:57.360Z,9.64
2023-04-08T15:14:00.538Z,9.88
2023-04-08T15:17:03.591Z,10.31
2023-04-08T15:20:07.897Z,10.01
2023-04-08T15:23:10.775Z,9.54
2023-04-08T15:26:14.444Z,10.18
2023-04-08T15:29:17.228Z,9.91
2023-04-08T15:32:20.573Z,9.92
2023-04-08T15:35:23.616Z,9.93
2023-04-08T15:38:27.329Z,9.61
2023-04-08T15:41:31.665Z,8.63
2023-04-08T15:44:34.894Z,8.20
2023-04-08T15:47:37.955Z,8.13
2023-04-08T15:50:42.395Z,8.32
2023-04-08T15:53:45.342Z,8.25
2023-04-08T15:56:48.130Z,8.42
2023-04-08T15:59:51.102Z,8.40
2023-04-08T16:02:54.215Z,7.99
2023-04-08T16:05:57.232Z,8.03
2023-04-08T16:09:01.088Z,8.03
2023-04-08T16:12:03.901Z,8.14
2023-04-08T16:15:07.092Z,8.19
2023-04-08T16:18:10.185Z,8.37
2023-04-08T16:21:12.936Z,8.31
2023-04-08T16:24:15.837Z,8.32
2023-04-08T16:27:18.653Z,8.30
2023-04-08T16:30:21.468Z,8.29
2023-04-08T16:33:29.899Z,8.26
2023-04-08T16:36:32.686Z,8.31
2023-04-08T16:39:35.489Z,8.14
2023-04-08T16:42:42.731Z,8.18
2023-04-08T16:45:45.823Z,8.19
2023-04-08T16:48:48.690Z,8.08
2023-04-08T16:51:51.436Z,8.17
2023-04-08T16:54:55.005Z,8.15
2023-04-08T16:57:57.984Z,8.00
2023-04-08T17:01:01.052Z,7.88
2023-04-08T17:04:04.546Z,7.73
2023-04-08T17:07:08.385Z,7.80
2023-04-08T17:10:11.517Z,7.67
2023-04-08T17:13:15.014Z,7.56
2023-04-08T17:16:18.480Z,7.55
2023-04-08T17:19:21.485Z,7.52
2023-04-08T17:22:24.371Z,7.55
2023-04-08T17:25:27.209Z,7.54
2023-04-08T17:28:30.179Z,7.54
2023-04-08T17:31:33.257Z,7.58
2023-04-08T17:34:36.280Z,7.48
2023-04-08T17:37:39.041Z,7.31
2023-04-08T17:40:42.100Z,7.30
2023-04-08T17:43:45.998Z,7.25
2023-04-08T17:46:48.869Z,7.21
2023-04-08T17:49:55.373Z,7.18
2023-04-08T17:52:58.413Z,7.16
2023-04-08T17:56:01.766Z,7.10
2023-04-08T17:59:04.734Z,7.11
2023-04-08T18:02:07.848Z,7.13
2023-04-08T18:05:11.870Z,7.10
2023-04-08T18:08:14.776Z,7.01
2023-04-08T18:11:17.803Z,7.01
2023-04-08T18:14:21.228Z,7.08
2023-04-08T18:17:24.019Z,7.16
2023-04-08T18:20:26.970Z,7.23
2023-04-08T18:23:29.859Z,7.19
2023-04-08T18:26:32.720Z,7.11
2023-04-08T18:29:35.655Z,7.06
2023-04-08T18:32:38.571Z,6.96
2023-04-08T18:35:41.767Z,6.85
2023-04-08T18:38:44.891Z,6.70
2023-04-08T18:41:47.684Z,6.69
2023-04-08T18:44:50.510Z,6.52
2023-04-08T18:47:53.339Z,6.51
2023-04-08T18:50:56.824Z,6.56
2023-04-08T18:53:59.651Z,6.53
2023-04-08T18:57:02.994Z,6.36
2023-04-08T19:00:06.774Z,6.39
2023-04-08T19:03:10.488Z,6.30
2023-04-08T19:06:13.820Z,6.33
2023-04-08T19:09:16.886Z,6.26
2023-04-08T19:12:20.758Z,6.22
2023-04-08T19:15:23.675Z,6.16
2023-04-08T19:18:26.562Z,6.17
2023-04-08T19:21:30.950Z,6.20
2023-04-08T19:24:34.188Z,6.22
2023-04-08T19:27:36.874Z,6.34
2023-04-08T19:30:40.491Z,6.37
2023-04-08T19:33:43.494Z,6.31
2023-04-08T19:36:46.764Z,6.37
2023-04-08T19:39:49.755Z,6.14
2023-04-08T19:42:52.618Z,6.09
2023-04-08T19:45:58.984Z,6.02
2023-04-08T19:49:01.806Z,5.99
2023-04-08T19:52:05.358Z,5.91
2023-04-08T19:55:10.464Z,6.01
2023-04-08T19:58:13.325Z,5.96
2023-04-08T20:01:16.385Z,6.00
2023-04-08T20:04:19.506Z,5.99
2023-04-08T20:07:22.446Z,5.95
2023-04-08T20:10:25.530Z,5.93
2023-04-08T20:13:28.621Z,5.99
2023-04-08T20:16:32.155Z,5.91
2023-04-08T20:19:35.156Z,5.87
2023-04-08T20:22:38.493Z,5.93
2023-04-08T20:25:41.354Z,5.99
2023-04-08T20:28:45.678Z,5.94
2023-04-08T20:31:48.952Z,6.02
2023-04-08T20:34:51.844Z,5.97
2023-04-08T20:37:54.676Z,5.80
2023-04-08T20:40:57.527Z,5.82
2023-04-08T20:44:00.556Z,5.76
2023-04-08T20:47:03.517Z,5.65
2023-04-08T20:50:07.743Z,5.58
2023-04-08T20:53:12.928Z,5.61
2023-04-08T20:56:15.755Z,5.59
2023-04-08T20:59:18.671Z,5.59
2023-04-08T21:02:21.937Z,5.63
2023-04-08T21:05:24.941Z,5.70
2023-04-08T21:08:27.824Z,5.69
2023-04-08T21:11:30.887Z,5.62
2023-04-08T21:14:34.894Z,5.49
2023-04-08T21:17:37.801Z,5.57
2023-04-08T21:20:41.242Z,5.58
2023-04-08T21:23:44.151Z,5.59
2023-04-08T21:26:46.937Z,5.60
2023-04-08T21:29:52.883Z,5.65
2023-04-08T21:32:55.687Z,5.65
2023-04-08T21:35:58.484Z,5.73
2023-04-08T21:39:01.566Z,5.58
2023-04-08T21:42:04.576Z,5.57
2023-04-08T21:45:08.053Z,5.46
2023-04-08T21:48:10.779Z,5.44
2023-04-08T21:51:17.511Z,5.40
2023-04-08T21:54:20.851Z,5.32
2023-04-08T21:57:23.752Z,5.35
2023-04-08T22:00:27.036Z,5.32
2023-04-08T22:03:29.929Z,5.28
2023-04-08T22:06:33.113Z,5.28
2023-04-08T22:09:36.163Z,5.31
2023-04-08T22:12:38.966Z,5.31
2023-04-08T22:15:41.678Z,5.19
2023-04-08T22:18:44.428Z,5.27
2023-04-08T22:21:47.558Z,5.31
2023-04-08T22:24:50.573Z,5.32
2023-04-08T22:27:53.423Z,5.31
2023-04-08T22:30:56.441Z,5.32
2023-04-08T22:33:59.553Z,5.31
2023-04-08T22:37:02.406Z,5.30
2023-04-08T22:40:05.822Z,5.34
2023-04-08T22:43:08.608Z,5.42
2023-04-08T22:46:12.028Z,5.33
2023-04-08T22:49:15.026Z,5.36
2023-04-08T22:52:18.188Z,5.28
2023-04-08T22:55:21.302Z,5.27
2023-04-08T22:58:24.529Z,5.24
2023-04-08T23:01:27.941Z,5.29
2023-04-08T23:04:30.974Z,5.18
2023-04-08T23:07:33.995Z,5.22
2023-04-08T23:10:36.941Z,5.18
2023-04-08T23:13:39.800Z,5.25
2023-04-08T23:16:42.559Z,5.21
2023-04-08T23:19:45.557Z,5.19
2023-04-08T23:22:48.331Z,5.16
2023-04-08T23:25:53.320Z,5.21
2023-04-08T23:28:57.441Z,5.16
2023-04-08T23:32:00.585Z,5.15
2023-04-08T23:35:03.912Z,5.13
2023-04-08T23:38:07.855Z,5.19
2023-04-08T23:41:10.693Z,5.16
2023-04-08T23:44:13.582Z,5.18
2023-04-08T23:47:16.562Z,5.18
2023-04-08T23:50:20.639Z,5.13
2023-04-08T23:53:23.446Z,5.14
2023-04-08T23:56:26.346Z,5.15
2023-04-08T23:59:29.187Z,5.16
